sensor_id;sensor_type;location;lat;lon;timestamp;pressure;altitude;pressure_sealevel;temperature;humidity
48555;BME280;34336;48.270;16.716;2023-07-31T00:01:17;109325.25;;;18.16;69.88
48555;BME280;34336;48.270;16.716;2023-07-31T00:03:45;109325.25;;;18.16;70.08
48555;BME280;34336;48.270;16.716;2023-07-31T00:06:12;109325.25;;;18.16;69.97
48555;BME280;34336;48.270;16.716;2023-07-31T00:08:39;109325.25;;;18.16;69.95
48555;BME280;34336;48.270;16.716;2023-07-31T00:11:06;109325.25;;;18.16;70.21
48555;BME280;34336;48.270;16.716;2023-07-31T00:13:32;109325.25;;;18.16;69.85
48555;BME280;34336;48.270;16.716;2023-07-31T00:16:02;109325.25;;;18.16;70.24
48555;BME280;34336;48.270;16.716;2023-07-31T00:18:28;109325.25;;;18.16;69.71
48555;BME280;34336;48.270;16.716;2023-07-31T00:20:55;109325.25;;;18.16;70.29
48555;BME280;34336;48.270;16.716;2023-07-31T00:23:22;109325.25;;;18.16;70.49
48555;BME280;34336;48.270;16.716;2023-07-31T00:25:49;109325.25;;;18.16;70.66
48555;BME280;34336;48.270;16.716;2023-07-31T00:28:15;109325.25;;;18.16;70.23
48555;BME280;34336;48.270;16.716;2023-07-31T00:30:42;109325.25;;;18.16;70.77
48555;BME280;34336;48.270;16.716;2023-07-31T00:33:09;109325.25;;;18.16;70.44
48555;BME280;34336;48.270;16.716;2023-07-31T00:35:36;109325.25;;;18.16;70.69
48555;BME280;34336;48.270;16.716;2023-07-31T00:38:03;109325.25;;;18.16;70.91
48555;BME280;34336;48.270;16.716;2023-07-31T00:40:34;109325.25;;;18.16;70.77
48555;BME280;34336;48.270;16.716;2023-07-31T00:43:01;109325.25;;;18.16;70.48
48555;BME280;34336;48.270;16.716;2023-07-31T00:45:29;109325.25;;;18.16;70.39
48555;BME280;34336;48.270;16.716;2023-07-31T00:47:59;109325.25;;;18.16;70.74
48555;BME280;34336;48.270;16.716;2023-07-31T00:50:26;109325.25;;;18.16;71.47
48555;BME280;34336;48.270;16.716;2023-07-31T00:52:54;109325.25;;;18.16;71.45
48555;BME280;34336;48.270;16.716;2023-07-31T00:55:21;109325.25;;;18.16;71.29
48555;BME280;34336;48.270;16.716;2023-07-31T00:57:49;109325.25;;;18.16;71.29
48555;BME280;34336;48.270;16.716;2023-07-31T01:00:17;109325.25;;;18.16;71.06
48555;BME280;34336;48.270;16.716;2023-07-31T01:02:44;109325.25;;;18.16;70.89
48555;BME280;34336;48.270;16.716;2023-07-31T01:05:13;109325.25;;;18.16;71.64
48555;BME280;34336;48.270;16.716;2023-07-31T01:10:23;109325.25;;;18.16;71.56
48555;BME280;34336;48.270;16.716;2023-07-31T01:12:53;109325.25;;;18.16;72.09
48555;BME280;34336;48.270;16.716;2023-07-31T01:15:21;109325.25;;;18.16;71.78
48555;BME280;34336;48.270;16.716;2023-07-31T01:17:50;109325.25;;;18.16;71.02
48555;BME280;34336;48.270;16.716;2023-07-31T01:20:22;109325.25;;;18.16;70.35
48555;BME280;34336;48.270;16.716;2023-07-31T01:23:08;109325.25;;;18.16;70.71
48555;BME280;34336;48.270;16.716;2023-07-31T01:28:46;109325.25;;;18.16;70.56
48555;BME280;34336;48.270;16.716;2023-07-31T01:31:21;109325.25;;;18.16;69.69
48555;BME280;34336;48.270;16.716;2023-07-31T01:33:53;109325.25;;;18.16;68.67
48555;BME280;34336;48.270;16.716;2023-07-31T01:36:22;109325.25;;;18.16;68.78
48555;BME280;34336;48.270;16.716;2023-07-31T01:38:49;109325.25;;;18.16;68.77
48555;BME280;34336;48.270;16.716;2023-07-31T01:41:18;109325.25;;;18.16;68.66
48555;BME280;34336;48.270;16.716;2023-07-31T01:43:46;109325.25;;;18.16;68.95
48555;BME280;34336;48.270;16.716;2023-07-31T01:46:16;109325.25;;;18.16;68.74
48555;BME280;34336;48.270;16.716;2023-07-31T01:48:44;109325.25;;;18.16;68.87
48555;BME280;34336;48.270;16.716;2023-07-31T01:51:12;109325.25;;;18.16;69.00
48555;BME280;34336;48.270;16.716;2023-07-31T01:53:40;109325.25;;;18.16;69.29
48555;BME280;34336;48.270;16.716;2023-07-31T01:56:08;109325.25;;;18.16;69.04
48555;BME280;34336;48.270;16.716;2023-07-31T01:58:36;109325.25;;;18.16;68.41
48555;BME280;34336;48.270;16.716;2023-07-31T02:01:04;109325.25;;;18.16;68.69
48555;BME280;34336;48.270;16.716;2023-07-31T02:03:34;109325.25;;;18.16;68.53
48555;BME280;34336;48.270;16.716;2023-07-31T02:06:02;109325.25;;;18.16;68.26
48555;BME280;34336;48.270;16.716;2023-07-31T02:08:29;109325.25;;;18.16;67.74
48555;BME280;34336;48.270;16.716;2023-07-31T02:10:57;109325.25;;;18.16;67.45
48555;BME280;34336;48.270;16.716;2023-07-31T02:13:25;109325.25;;;18.16;67.25
48555;BME280;34336;48.270;16.716;2023-07-31T02:15:53;109325.25;;;18.16;67.35
48555;BME280;34336;48.270;16.716;2023-07-31T02:18:20;109325.25;;;18.16;67.62
48555;BME280;34336;48.270;16.716;2023-07-31T02:20:50;109325.25;;;18.16;67.41
48555;BME280;34336;48.270;16.716;2023-07-31T02:23:19;109325.25;;;18.16;67.43
48555;BME280;34336;48.270;16.716;2023-07-31T02:25:47;109325.25;;;18.16;67.07
48555;BME280;34336;48.270;16.716;2023-07-31T02:28:14;109325.25;;;18.16;67.41
48555;BME280;34336;48.270;16.716;2023-07-31T02:30:45;109325.25;;;18.16;67.41
48555;BME280;34336;48.270;16.716;2023-07-31T02:33:15;109325.25;;;18.16;67.82
48555;BME280;34336;48.270;16.716;2023-07-31T02:35:46;109325.25;;;18.16;67.65
48555;BME280;34336;48.270;16.716;2023-07-31T02:38:14;109325.25;;;18.16;67.98
48555;BME280;34336;48.270;16.716;2023-07-31T02:40:42;109325.25;;;18.16;68.55
48555;BME280;34336;48.270;16.716;2023-07-31T02:43:09;109325.25;;;18.16;69.26
48555;BME280;34336;48.270;16.716;2023-07-31T02:45:36;109325.25;;;18.16;69.66
48555;BME280;34336;48.270;16.716;2023-07-31T02:48:04;109325.25;;;18.16;70.02
48555;BME280;34336;48.270;16.716;2023-07-31T02:50:32;109325.25;;;18.16;70.25
48555;BME280;34336;48.270;16.716;2023-07-31T02:53:00;109325.25;;;18.16;70.46
48555;BME280;34336;48.270;16.716;2023-07-31T02:55:28;109325.25;;;18.16;70.82
48555;BME280;34336;48.270;16.716;2023-07-31T02:57:57;109325.25;;;18.16;71.23
48555;BME280;34336;48.270;16.716;2023-07-31T03:00:26;109325.25;;;18.16;71.66
48555;BME280;34336;48.270;16.716;2023-07-31T03:02:54;109325.25;;;18.16;71.83
48555;BME280;34336;48.270;16.716;2023-07-31T03:05:23;109325.25;;;18.16;72.09
48555;BME280;34336;48.270;16.716;2023-07-31T03:07:51;109325.25;;;18.16;72.27
48555;BME280;34336;48.270;16.716;2023-07-31T03:10:19;109325.25;;;18.16;72.64
48555;BME280;34336;48.270;16.716;2023-07-31T03:12:48;109325.25;;;18.16;73.28
48555;BME280;34336;48.270;16.716;2023-07-31T03:15:17;109325.25;;;18.16;73.52
48555;BME280;34336;48.270;16.716;2023-07-31T03:17:46;109325.25;;;18.16;74.12
48555;BME280;34336;48.270;16.716;2023-07-31T03:20:14;109325.25;;;18.16;74.46
48555;BME280;34336;48.270;16.716;2023-07-31T03:22:45;109325.25;;;18.16;74.67
48555;BME280;34336;48.270;16.716;2023-07-31T03:25:14;109325.25;;;18.16;74.91
48555;BME280;34336;48.270;16.716;2023-07-31T03:27:41;109325.25;;;18.16;75.11
48555;BME280;34336;48.270;16.716;2023-07-31T03:30:10;109325.25;;;18.16;75.50
48555;BME280;34336;48.270;16.716;2023-07-31T03:32:40;109325.25;;;18.16;75.26
48555;BME280;34336;48.270;16.716;2023-07-31T03:35:08;109325.25;;;18.16;75.84
48555;BME280;34336;48.270;16.716;2023-07-31T03:37:36;109325.25;;;18.16;75.81
48555;BME280;34336;48.270;16.716;2023-07-31T03:40:04;109325.25;;;18.16;75.68
48555;BME280;34336;48.270;16.716;2023-07-31T03:42:35;109325.25;;;18.16;75.36
48555;BME280;34336;48.270;16.716;2023-07-31T03:45:03;109325.25;;;18.16;75.76
48555;BME280;34336;48.270;16.716;2023-07-31T03:47:32;109325.25;;;18.16;75.26
48555;BME280;34336;48.270;16.716;2023-07-31T03:50:01;109325.25;;;18.16;74.74
48555;BME280;34336;48.270;16.716;2023-07-31T03:52:30;109325.25;;;18.16;74.83
48555;BME280;34336;48.270;16.716;2023-07-31T03:54:58;109325.25;;;18.16;74.04
48555;BME280;34336;48.270;16.716;2023-07-31T03:57:26;109325.25;;;18.16;73.17
48555;BME280;34336;48.270;16.716;2023-07-31T03:59:57;109325.25;;;18.16;71.75
48555;BME280;34336;48.270;16.716;2023-07-31T04:02:26;109325.25;;;18.16;69.85
48555;BME280;34336;48.270;16.716;2023-07-31T04:04:53;109325.25;;;18.16;68.13
48555;BME280;34336;48.270;16.716;2023-07-31T04:07:23;109325.25;;;18.16;65.18
48555;BME280;34336;48.270;16.716;2023-07-31T04:09:53;109325.25;;;18.16;63.47
48555;BME280;34336;48.270;16.716;2023-07-31T04:12:21;109325.25;;;18.16;62.00
48555;BME280;34336;48.270;16.716;2023-07-31T04:14:50;109325.25;;;18.16;59.20
48555;BME280;34336;48.270;16.716;2023-07-31T04:17:18;109325.25;;;18.16;54.12
48555;BME280;34336;48.270;16.716;2023-07-31T04:19:48;109325.25;;;18.16;52.14
48555;BME280;34336;48.270;16.716;2023-07-31T04:22:17;109325.25;;;18.16;50.25
48555;BME280;34336;48.270;16.716;2023-07-31T04:24:45;109325.25;;;18.16;49.22
48555;BME280;34336;48.270;16.716;2023-07-31T04:27:13;109325.25;;;18.16;47.11
48555;BME280;34336;48.270;16.716;2023-07-31T04:29:41;109325.25;;;18.16;46.15
48555;BME280;34336;48.270;16.716;2023-07-31T04:32:12;109325.25;;;18.16;45.04
48555;BME280;34336;48.270;16.716;2023-07-31T04:34:40;109325.25;;;18.16;45.51
48555;BME280;34336;48.270;16.716;2023-07-31T04:37:07;109325.25;;;18.16;46.38
48555;BME280;34336;48.270;16.716;2023-07-31T04:39:36;109325.25;;;18.16;46.95
48555;BME280;34336;48.270;16.716;2023-07-31T04:42:04;109325.25;;;18.16;48.37
48555;BME280;34336;48.270;16.716;2023-07-31T04:44:32;109325.25;;;18.16;47.63
48555;BME280;34336;48.270;16.716;2023-07-31T04:47:01;109325.25;;;18.16;49.75
48555;BME280;34336;48.270;16.716;2023-07-31T04:49:29;109325.25;;;18.16;51.37
48555;BME280;34336;48.270;16.716;2023-07-31T04:51:57;109325.25;;;18.16;51.09
48555;BME280;34336;48.270;16.716;2023-07-31T04:54:25;109325.25;;;18.16;48.99
48555;BME280;34336;48.270;16.716;2023-07-31T04:56:53;109325.25;;;18.16;47.71
48555;BME280;34336;48.270;16.716;2023-07-31T04:59:21;109325.25;;;18.16;47.22
48555;BME280;34336;48.270;16.716;2023-07-31T05:01:50;109325.25;;;18.16;48.78
48555;BME280;34336;48.270;16.716;2023-07-31T05:04:17;109325.25;;;18.16;50.52
48555;BME280;34336;48.270;16.716;2023-07-31T05:06:45;109325.25;;;18.16;51.64
48555;BME280;34336;48.270;16.716;2023-07-31T05:09:14;109325.25;;;18.16;52.73
48555;BME280;34336;48.270;16.716;2023-07-31T05:11:42;109325.25;;;18.16;52.14
48555;BME280;34336;48.270;16.716;2023-07-31T05:14:12;109325.25;;;18.16;52.07
48555;BME280;34336;48.270;16.716;2023-07-31T05:16:39;109325.25;;;18.16;52.49
48555;BME280;34336;48.270;16.716;2023-07-31T05:19:09;109325.25;;;18.16;50.96
48555;BME280;34336;48.270;16.716;2023-07-31T05:21:36;109325.25;;;18.16;51.49
48555;BME280;34336;48.270;16.716;2023-07-31T05:24:04;109325.25;;;18.16;47.61
48555;BME280;34336;48.270;16.716;2023-07-31T05:26:32;109325.25;;;18.16;44.04
48555;BME280;34336;48.270;16.716;2023-07-31T05:29:00;109325.25;;;18.16;41.98
48555;BME280;34336;48.270;16.716;2023-07-31T05:31:28;109325.25;;;18.16;40.74
48555;BME280;34336;48.270;16.716;2023-07-31T05:33:56;109325.25;;;18.16;38.74
48555;BME280;34336;48.270;16.716;2023-07-31T05:36:23;109325.25;;;18.16;38.02
48555;BME280;34336;48.270;16.716;2023-07-31T05:38:51;109325.25;;;18.16;38.10
48555;BME280;34336;48.270;16.716;2023-07-31T05:41:19;109325.25;;;18.16;37.30
48555;BME280;34336;48.270;16.716;2023-07-31T05:43:47;109325.25;;;18.16;38.35
48555;BME280;34336;48.270;16.716;2023-07-31T05:46:15;109325.25;;;18.16;37.21
48555;BME280;34336;48.270;16.716;2023-07-31T05:48:42;109325.25;;;18.16;36.23
48555;BME280;34336;48.270;16.716;2023-07-31T05:51:10;109325.25;;;18.16;36.54
48555;BME280;34336;48.270;16.716;2023-07-31T05:53:39;109325.25;;;18.16;37.04
48555;BME280;34336;48.270;16.716;2023-07-31T05:56:09;109325.25;;;18.16;38.57
48555;BME280;34336;48.270;16.716;2023-07-31T05:58:37;109325.25;;;18.16;41.82
48555;BME280;34336;48.270;16.716;2023-07-31T06:01:05;109325.25;;;18.16;40.40
48555;BME280;34336;48.270;16.716;2023-07-31T06:03:33;109325.25;;;18.16;37.57
48555;BME280;34336;48.270;16.716;2023-07-31T06:06:02;109325.25;;;18.16;36.64
48555;BME280;34336;48.270;16.716;2023-07-31T06:08:30;109325.25;;;18.16;35.41
48555;BME280;34336;48.270;16.716;2023-07-31T06:10:58;109325.25;;;18.16;34.50
48555;BME280;34336;48.270;16.716;2023-07-31T06:13:27;109325.25;;;18.16;34.13
48555;BME280;34336;48.270;16.716;2023-07-31T06:15:55;109325.25;;;18.16;33.93
48555;BME280;34336;48.270;16.716;2023-07-31T06:18:23;109325.25;;;18.16;34.44
48555;BME280;34336;48.270;16.716;2023-07-31T06:20:51;109325.25;;;18.16;34.53
48555;BME280;34336;48.270;16.716;2023-07-31T06:23:21;109325.25;;;18.16;34.85
48555;BME280;34336;48.270;16.716;2023-07-31T06:25:50;109325.25;;;18.16;34.97
48555;BME280;34336;48.270;16.716;2023-07-31T06:28:18;109325.25;;;18.16;35.98
48555;BME280;34336;48.270;16.716;2023-07-31T06:30:47;109325.25;;;18.16;36.93
48555;BME280;34336;48.270;16.716;2023-07-31T06:33:15;109325.25;;;18.16;36.14
48555;BME280;34336;48.270;16.716;2023-07-31T06:35:43;109325.25;;;18.16;36.23
48555;BME280;34336;48.270;16.716;2023-07-31T06:38:13;109325.25;;;18.16;38.02
48555;BME280;34336;48.270;16.716;2023-07-31T06:40:41;109325.25;;;18.16;37.75
48555;BME280;34336;48.270;16.716;2023-07-31T06:43:10;109325.25;;;18.16;37.20
48555;BME280;34336;48.270;16.716;2023-07-31T06:45:40;109325.25;;;18.16;36.57
48555;BME280;34336;48.270;16.716;2023-07-31T06:48:09;109325.25;;;18.16;36.63
48555;BME280;34336;48.270;16.716;2023-07-31T06:50:38;109325.25;;;18.16;36.54
48555;BME280;34336;48.270;16.716;2023-07-31T06:53:07;109325.25;;;18.16;36.00
48555;BME280;34336;48.270;16.716;2023-07-31T06:55:36;109325.25;;;18.16;34.16
48555;BME280;34336;48.270;16.716;2023-07-31T06:58:05;109325.25;;;18.16;33.16
48555;BME280;34336;48.270;16.716;2023-07-31T07:00:33;109325.25;;;18.16;34.09
48555;BME280;34336;48.270;16.716;2023-07-31T07:03:02;109325.25;;;18.16;34.17
48555;BME280;34336;48.270;16.716;2023-07-31T07:05:30;109325.25;;;18.16;35.18
48555;BME280;34336;48.270;16.716;2023-07-31T07:07:59;109325.25;;;18.16;34.61
48555;BME280;34336;48.270;16.716;2023-07-31T07:10:28;109325.25;;;18.16;34.72
48555;BME280;34336;48.270;16.716;2023-07-31T07:12:57;109325.25;;;18.16;34.38
48555;BME280;34336;48.270;16.716;2023-07-31T07:15:26;109325.25;;;18.16;34.90
48555;BME280;34336;48.270;16.716;2023-07-31T07:17:56;109325.25;;;18.16;35.03
48555;BME280;34336;48.270;16.716;2023-07-31T07:20:25;109325.25;;;18.16;33.58
48555;BME280;34336;48.270;16.716;2023-07-31T07:22:54;109325.25;;;18.16;34.64
48555;BME280;34336;48.270;16.716;2023-07-31T07:25:22;109325.25;;;18.16;35.22
48555;BME280;34336;48.270;16.716;2023-07-31T07:27:55;109325.25;;;18.16;33.50
48555;BME280;34336;48.270;16.716;2023-07-31T07:30:24;109325.25;;;18.16;33.81
48555;BME280;34336;48.270;16.716;2023-07-31T07:32:53;109325.25;;;18.16;34.03
48555;BME280;34336;48.270;16.716;2023-07-31T07:35:22;109325.25;;;18.16;34.71
48555;BME280;34336;48.270;16.716;2023-07-31T07:37:51;109325.25;;;18.16;34.77
48555;BME280;34336;48.270;16.716;2023-07-31T07:40:20;109325.25;;;18.16;34.40
48555;BME280;34336;48.270;16.716;2023-07-31T07:42:50;109325.25;;;18.16;35.96
48555;BME280;34336;48.270;16.716;2023-07-31T07:45:19;109325.25;;;18.16;35.27
48555;BME280;34336;48.270;16.716;2023-07-31T07:47:48;109325.25;;;18.16;33.47
48555;BME280;34336;48.270;16.716;2023-07-31T07:50:16;109325.25;;;18.16;34.11
48555;BME280;34336;48.270;16.716;2023-07-31T07:52:44;109325.25;;;18.16;33.97
48555;BME280;34336;48.270;16.716;2023-07-31T07:55:12;109325.25;;;18.16;34.27
48555;BME280;34336;48.270;16.716;2023-07-31T07:57:41;109325.25;;;18.16;34.11
48555;BME280;34336;48.270;16.716;2023-07-31T08:00:09;109325.25;;;18.16;33.98
48555;BME280;34336;48.270;16.716;2023-07-31T08:02:42;109325.25;;;18.16;34.82
48555;BME280;34336;48.270;16.716;2023-07-31T08:05:11;109325.25;;;18.16;35.22
48555;BME280;34336;48.270;16.716;2023-07-31T08:07:40;109325.25;;;18.16;34.54
48555;BME280;34336;48.270;16.716;2023-07-31T08:10:10;109325.25;;;18.16;35.64
48555;BME280;34336;48.270;16.716;2023-07-31T08:12:41;109325.25;;;18.16;37.05
48555;BME280;34336;48.270;16.716;2023-07-31T08:15:10;109325.25;;;18.16;37.68
48555;BME280;34336;48.270;16.716;2023-07-31T08:17:39;109325.25;;;18.16;37.03
48555;BME280;34336;48.270;16.716;2023-07-31T08:20:09;109325.25;;;18.16;37.13
48555;BME280;34336;48.270;16.716;2023-07-31T08:22:38;109325.25;;;18.16;37.56
48555;BME280;34336;48.270;16.716;2023-07-31T08:25:06;109325.25;;;18.16;38.11
48555;BME280;34336;48.270;16.716;2023-07-31T08:27:36;109325.25;;;18.16;38.50
48555;BME280;34336;48.270;16.716;2023-07-31T08:30:05;109325.25;;;18.16;37.81
48555;BME280;34336;48.270;16.716;2023-07-31T08:32:33;109325.25;;;18.16;37.20
48555;BME280;34336;48.270;16.716;2023-07-31T08:35:01;109325.25;;;18.16;36.92
48555;BME280;34336;48.270;16.716;2023-07-31T08:37:30;109325.25;;;18.16;37.38
48555;BME280;34336;48.270;16.716;2023-07-31T08:40:00;109325.25;;;18.16;37.12
48555;BME280;34336;48.270;16.716;2023-07-31T08:42:28;109325.25;;;18.16;37.79
48555;BME280;34336;48.270;16.716;2023-07-31T08:44:59;109325.25;;;18.16;37.41
48555;BME280;34336;48.270;16.716;2023-07-31T08:47:30;109325.25;;;18.16;36.92
48555;BME280;34336;48.270;16.716;2023-07-31T08:50:02;109325.25;;;18.16;36.92
48555;BME280;34336;48.270;16.716;2023-07-31T08:52:30;109325.25;;;18.16;37.17
48555;BME280;34336;48.270;16.716;2023-07-31T08:54:58;109325.25;;;18.16;36.01
48555;BME280;34336;48.270;16.716;2023-07-31T08:57:26;109325.25;;;18.16;36.72
48555;BME280;34336;48.270;16.716;2023-07-31T08:59:55;109325.25;;;18.16;36.22
48555;BME280;34336;48.270;16.716;2023-07-31T09:02:31;109325.25;;;18.16;35.88
48555;BME280;34336;48.270;16.716;2023-07-31T09:05:02;109325.25;;;18.16;35.17
48555;BME280;34336;48.270;16.716;2023-07-31T09:07:31;109325.25;;;18.16;35.55
48555;BME280;34336;48.270;16.716;2023-07-31T09:10:03;109325.25;;;18.16;32.92
48555;BME280;34336;48.270;16.716;2023-07-31T09:12:31;109325.25;;;18.16;33.36
48555;BME280;34336;48.270;16.716;2023-07-31T09:15:00;109325.25;;;18.16;34.62
48555;BME280;34336;48.270;16.716;2023-07-31T09:17:30;109325.25;;;18.16;34.88
48555;BME280;34336;48.270;16.716;2023-07-31T09:20:13;109325.25;;;18.16;34.11
48555;BME280;34336;48.270;16.716;2023-07-31T09:22:42;109325.25;;;18.16;34.75
48555;BME280;34336;48.270;16.716;2023-07-31T09:28:00;109325.25;;;18.16;34.36
48555;BME280;34336;48.270;16.716;2023-07-31T09:30:28;109325.25;;;18.16;33.79
48555;BME280;34336;48.270;16.716;2023-07-31T09:33:03;109325.25;;;18.16;32.74
48555;BME280;34336;48.270;16.716;2023-07-31T09:35:34;109325.25;;;18.16;35.26
48555;BME280;34336;48.270;16.716;2023-07-31T09:38:07;109325.25;;;18.16;36.35
48555;BME280;34336;48.270;16.716;2023-07-31T09:40:42;109325.25;;;18.16;34.60
48555;BME280;34336;48.270;16.716;2023-07-31T09:43:19;109325.25;;;18.16;34.96
48555;BME280;34336;48.270;16.716;2023-07-31T09:45:48;109325.25;;;18.16;35.37
48555;BME280;34336;48.270;16.716;2023-07-31T09:48:17;109325.25;;;18.16;36.52
48555;BME280;34336;48.270;16.716;2023-07-31T09:50:47;109325.25;;;18.16;36.46
48555;BME280;34336;48.270;16.716;2023-07-31T09:53:17;109325.25;;;18.16;34.65
48555;BME280;34336;48.270;16.716;2023-07-31T09:55:51;109325.25;;;18.16;33.70
48555;BME280;34336;48.270;16.716;2023-07-31T09:58:19;109325.25;;;18.16;33.31
48555;BME280;34336;48.270;16.716;2023-07-31T10:00:48;109325.25;;;18.16;33.74
48555;BME280;34336;48.270;16.716;2023-07-31T10:03:17;109325.25;;;18.16;35.66
48555;BME280;34336;48.270;16.716;2023-07-31T10:05:50;109325.25;;;18.16;35.69
48555;BME280;34336;48.270;16.716;2023-07-31T10:08:20;109325.25;;;18.16;36.52
48555;BME280;34336;48.270;16.716;2023-07-31T10:10:50;109325.25;;;18.16;36.71
48555;BME280;34336;48.270;16.716;2023-07-31T10:13:20;109325.25;;;18.16;36.75
48555;BME280;34336;48.270;16.716;2023-07-31T10:15:50;109325.25;;;18.16;36.34
48555;BME280;34336;48.270;16.716;2023-07-31T10:18:19;109325.25;;;18.16;35.23
48555;BME280;34336;48.270;16.716;2023-07-31T10:20:48;109325.25;;;18.16;34.63
48555;BME280;34336;48.270;16.716;2023-07-31T10:23:17;109325.25;;;18.16;35.12
48555;BME280;34336;48.270;16.716;2023-07-31T10:25:47;109325.25;;;18.16;35.02
48555;BME280;34336;48.270;16.716;2023-07-31T10:28:17;109325.25;;;18.16;34.68
48555;BME280;34336;48.270;16.716;2023-07-31T10:30:46;109325.25;;;18.16;34.28
48555;BME280;34336;48.270;16.716;2023-07-31T10:33:16;109325.25;;;18.16;34.56
48555;BME280;34336;48.270;16.716;2023-07-31T10:35:47;109325.25;;;18.16;33.84
48555;BME280;34336;48.270;16.716;2023-07-31T10:38:16;109325.25;;;18.16;34.69
48555;BME280;34336;48.270;16.716;2023-07-31T10:40:47;109325.25;;;18.16;34.81
48555;BME280;34336;48.270;16.716;2023-07-31T10:43:24;109325.25;;;18.16;35.09
48555;BME280;34336;48.270;16.716;2023-07-31T10:45:53;109325.25;;;18.16;34.48
48555;BME280;34336;48.270;16.716;2023-07-31T10:48:22;109325.25;;;18.16;34.71
48555;BME280;34336;48.270;16.716;2023-07-31T10:50:55;109325.25;;;18.16;34.41
48555;BME280;34336;48.270;16.716;2023-07-31T10:53:25;109325.25;;;18.16;34.93
48555;BME280;34336;48.270;16.716;2023-07-31T10:55:58;109325.25;;;18.16;33.30
48555;BME280;34336;48.270;16.716;2023-07-31T10:58:27;109325.25;;;18.16;33.55
48555;BME280;34336;48.270;16.716;2023-07-31T11:00:58;109325.25;;;18.16;33.50
48555;BME280;34336;48.270;16.716;2023-07-31T11:03:47;109325.25;;;18.16;33.37
48555;BME280;34336;48.270;16.716;2023-07-31T11:06:17;109325.25;;;18.16;34.14
48555;BME280;34336;48.270;16.716;2023-07-31T11:08:49;109325.25;;;18.16;33.77
48555;BME280;34336;48.270;16.716;2023-07-31T11:11:19;109325.25;;;18.16;33.89
48555;BME280;34336;48.270;16.716;2023-07-31T11:13:50;109325.25;;;18.16;33.34
48555;BME280;34336;48.270;16.716;2023-07-31T11:16:24;109325.25;;;18.16;33.59
48555;BME280;34336;48.270;16.716;2023-07-31T11:18:54;109325.25;;;18.16;33.24
48555;BME280;34336;48.270;16.716;2023-07-31T11:21:24;109325.25;;;18.16;31.57
48555;BME280;34336;48.270;16.716;2023-07-31T11:23:56;109325.25;;;18.16;31.59
48555;BME280;34336;48.270;16.716;2023-07-31T11:26:27;109325.25;;;18.16;31.18
48555;BME280;34336;48.270;16.716;2023-07-31T11:28:56;109325.25;;;18.16;31.87
48555;BME280;34336;48.270;16.716;2023-07-31T11:31:25;109325.25;;;18.16;31.81
48555;BME280;34336;48.270;16.716;2023-07-31T11:34:05;109325.25;;;18.16;33.57
48555;BME280;34336;48.270;16.716;2023-07-31T11:36:32;109325.25;;;18.16;32.81
48555;BME280;34336;48.270;16.716;2023-07-31T11:39:10;109325.25;;;18.16;32.72
48555;BME280;34336;48.270;16.716;2023-07-31T11:41:42;109325.25;;;18.16;33.03
48555;BME280;34336;48.270;16.716;2023-07-31T11:44:10;109325.25;;;18.16;32.85
48555;BME280;34336;48.270;16.716;2023-07-31T11:46:57;109325.25;;;18.16;33.82
48555;BME280;34336;48.270;16.716;2023-07-31T11:49:25;109325.25;;;18.16;32.68
48555;BME280;34336;48.270;16.716;2023-07-31T11:51:53;109325.25;;;18.16;31.73
48555;BME280;34336;48.270;16.716;2023-07-31T11:54:21;109325.25;;;18.16;32.50
48555;BME280;34336;48.270;16.716;2023-07-31T11:56:50;109325.25;;;18.16;32.98
48555;BME280;34336;48.270;16.716;2023-07-31T11:59:18;109325.25;;;18.16;32.78
48555;BME280;34336;48.270;16.716;2023-07-31T12:01:45;109325.25;;;18.16;33.43
48555;BME280;34336;48.270;16.716;2023-07-31T12:04:13;109325.25;;;18.16;32.88
48555;BME280;34336;48.270;16.716;2023-07-31T12:06:41;109325.25;;;18.16;32.47
48555;BME280;34336;48.270;16.716;2023-07-31T12:09:14;109325.25;;;18.16;32.58
48555;BME280;34336;48.270;16.716;2023-07-31T12:11:46;109325.25;;;18.16;32.07
48555;BME280;34336;48.270;16.716;2023-07-31T12:14:21;109325.25;;;18.16;31.87
48555;BME280;34336;48.270;16.716;2023-07-31T12:17:01;109325.25;;;18.16;31.83
48555;BME280;34336;48.270;16.716;2023-07-31T12:19:31;109325.25;;;18.16;32.18
48555;BME280;34336;48.270;16.716;2023-07-31T12:22:00;109325.25;;;18.16;31.57
48555;BME280;34336;48.270;16.716;2023-07-31T12:24:28;109325.25;;;18.16;31.55
48555;BME280;34336;48.270;16.716;2023-07-31T12:26:56;109325.25;;;18.16;32.64
48555;BME280;34336;48.270;16.716;2023-07-31T12:29:24;109325.25;;;18.16;32.47
48555;BME280;34336;48.270;16.716;2023-07-31T12:32:01;109325.25;;;18.16;32.81
48555;BME280;34336;48.270;16.716;2023-07-31T12:34:29;109325.25;;;18.16;32.91
48555;BME280;34336;48.270;16.716;2023-07-31T12:36:59;109325.25;;;18.16;32.74
48555;BME280;34336;48.270;16.716;2023-07-31T12:39:26;109325.25;;;18.16;33.23
48555;BME280;34336;48.270;16.716;2023-07-31T12:41:55;109325.25;;;18.16;33.53
48555;BME280;34336;48.270;16.716;2023-07-31T12:44:22;109325.25;;;18.16;32.79
48555;BME280;34336;48.270;16.716;2023-07-31T12:46:50;109325.25;;;18.16;32.02
48555;BME280;34336;48.270;16.716;2023-07-31T12:49:19;109325.25;;;18.16;30.98
48555;BME280;34336;48.270;16.716;2023-07-31T12:51:46;109325.25;;;18.16;31.23
48555;BME280;34336;48.270;16.716;2023-07-31T12:54:15;109325.25;;;18.16;32.40
48555;BME280;34336;48.270;16.716;2023-07-31T12:56:42;109325.25;;;18.16;32.37
48555;BME280;34336;48.270;16.716;2023-07-31T12:59:11;109325.25;;;18.16;32.52